sensor_id;sensor_type;location;lat;lon;timestamp;temperature;humidity
27384;DHT22;14851;51.166;4.760;2023-08-20T00:00:39;19.20;99.90
27384;DHT22;14851;51.166;4.760;2023-08-20T00:03:15;19.10;99.90
27384;DHT22;14851;51.166;4.760;2023-08-20T00:05:41;19.10;99.90
27384;DHT22;14851;51.166;4.760;2023-08-20T00:08:09;19.10;99.90
27384;DHT22;14851;51.166;4.760;2023-08-20T00:10:35;19.00;99.90
27384;DHT22;14851;51.166;4.760;2023-08-20T00:13:01;19.10;99.90
27384;DHT22;14851;51.166;4.760;2023-08-20T00:15:29;19.10;99.90
27384;DHT22;14851;51.166;4.760;2023-08-20T00:17:56;19.10;99.90
27384;DHT22;14851;51.166;4.760;2023-08-20T00:20:23;19.10;99.90
27384;DHT22;14851;51.166;4.760;2023-08-20T00:22:49;19.10;99.90
27384;DHT22;14851;51.166;4.760;2023-08-20T00:25:16;19.20;99.90
27384;DHT22;14851;51.166;4.760;2023-08-20T00:27:44;19.20;99.90
27384;DHT22;14851;51.166;4.760;2023-08-20T00:30:10;19.20;99.90
27384;DHT22;14851;51.166;4.760;2023-08-20T00:32:37;19.30;99.90
27384;DHT22;14851;51.166;4.760;2023-08-20T00:35:04;19.30;99.90
27384;DHT22;14851;51.166;4.760;2023-08-20T00:37:31;19.30;99.90
27384;DHT22;14851;51.166;4.760;2023-08-20T00:39:57;19.30;99.90
27384;DHT22;14851;51.166;4.760;2023-08-20T00:42:24;19.30;99.90
27384;DHT22;14851;51.166;4.760;2023-08-20T00:44:53;19.30;99.90
27384;DHT22;14851;51.166;4.760;2023-08-20T00:47:20;19.40;99.90
27384;DHT22;14851;51.166;4.760;2023-08-20T00:49:47;19.40;99.90
27384;DHT22;14851;51.166;4.760;2023-08-20T00:52:15;19.40;99.90
27384;DHT22;14851;51.166;4.760;2023-08-20T00:54:45;19.40;99.90
27384;DHT22;14851;51.166;4.760;2023-08-20T00:57:13;19.30;99.90
27384;DHT22;14851;51.166;4.760;2023-08-20T00:59:42;19.30;99.90
27384;DHT22;14851;51.166;4.760;2023-08-20T01:02:09;19.40;99.90
27384;DHT22;14851;51.166;4.760;2023-08-20T01:04:36;19.40;99.90
27384;DHT22;14851;51.166;4.760;2023-08-20T01:07:14;19.40;99.90
27384;DHT22;14851;51.166;4.760;2023-08-20T01:12:26;19.30;99.90
27384;DHT22;14851;51.166;4.760;2023-08-20T01:14:54;19.30;99.90
27384;DHT22;14851;51.166;4.760;2023-08-20T01:17:24;19.20;99.90
27384;DHT22;14851;51.166;4.760;2023-08-20T01:19:50;19.30;99.90
27384;DHT22;14851;51.166;4.760;2023-08-20T01:28:31;19.30;99.90
27384;DHT22;14851;51.166;4.760;2023-08-20T01:31:01;19.20;99.90
27384;DHT22;14851;51.166;4.760;2023-08-20T01:33:27;19.20;99.90
27384;DHT22;14851;51.166;4.760;2023-08-20T01:35:57;19.20;99.90
27384;DHT22;14851;51.166;4.760;2023-08-20T01:38:23;19.10;99.90
27384;DHT22;14851;51.166;4.760;2023-08-20T01:40:49;19.20;99.90
27384;DHT22;14851;51.166;4.760;2023-08-20T01:43:18;19.20;99.90
27384;DHT22;14851;51.166;4.760;2023-08-20T01:45:46;19.10;99.90
27384;DHT22;14851;51.166;4.760;2023-08-20T01:48:13;19.20;99.90
27384;DHT22;14851;51.166;4.760;2023-08-20T01:50:39;19.20;99.90
27384;DHT22;14851;51.166;4.760;2023-08-20T01:53:05;19.20;99.90
27384;DHT22;14851;51.166;4.760;2023-08-20T01:55:32;19.20;99.90
27384;DHT22;14851;51.166;4.760;2023-08-20T01:57:59;19.20;99.90
27384;DHT22;14851;51.166;4.760;2023-08-20T02:00:26;19.20;99.90
27384;DHT22;14851;51.166;4.760;2023-08-20T02:02:54;19.20;99.90
27384;DHT22;14851;51.166;4.760;2023-08-20T02:05:20;19.10;99.90
27384;DHT22;14851;51.166;4.760;2023-08-20T02:07:49;19.10;99.90
27384;DHT22;14851;51.166;4.760;2023-08-20T02:10:16;19.10;99.90
27384;DHT22;14851;51.166;4.760;2023-08-20T02:12:42;19.10;99.90
27384;DHT22;14851;51.166;4.760;2023-08-20T02:15:09;19.10;99.90
27384;DHT22;14851;51.166;4.760;2023-08-20T02:17:37;19.10;99.90
27384;DHT22;14851;51.166;4.760;2023-08-20T02:20:08;19.10;99.90
27384;DHT22;14851;51.166;4.760;2023-08-20T02:22:36;19.10;99.90
27384;DHT22;14851;51.166;4.760;2023-08-20T02:25:03;19.00;99.90
27384;DHT22;14851;51.166;4.760;2023-08-20T02:27:31;19.00;99.90
27384;DHT22;14851;51.166;4.760;2023-08-20T02:29:59;18.90;99.90
27384;DHT22;14851;51.166;4.760;2023-08-20T02:32:26;18.80;99.90
27384;DHT22;14851;51.166;4.760;2023-08-20T02:34:52;18.80;99.90
27384;DHT22;14851;51.166;4.760;2023-08-20T02:37:19;18.70;99.90
27384;DHT22;14851;51.166;4.760;2023-08-20T02:39:46;18.60;99.90
27384;DHT22;14851;51.166;4.760;2023-08-20T02:42:11;18.60;99.90
27384;DHT22;14851;51.166;4.760;2023-08-20T02:44:37;18.50;99.90
27384;DHT22;14851;51.166;4.760;2023-08-20T02:47:05;18.50;99.90
27384;DHT22;14851;51.166;4.760;2023-08-20T02:49:33;18.50;99.90
27384;DHT22;14851;51.166;4.760;2023-08-20T02:51:59;18.40;99.90
27384;DHT22;14851;51.166;4.760;2023-08-20T02:54:25;18.40;99.90
27384;DHT22;14851;51.166;4.760;2023-08-20T02:56:52;18.40;99.90
27384;DHT22;14851;51.166;4.760;2023-08-20T02:59:19;18.30;99.90
27384;DHT22;14851;51.166;4.760;2023-08-20T03:01:45;18.30;99.90
27384;DHT22;14851;51.166;4.760;2023-08-20T03:04:12;18.20;99.90
27384;DHT22;14851;51.166;4.760;2023-08-20T03:06:38;18.20;99.90
27384;DHT22;14851;51.166;4.760;2023-08-20T03:09:04;18.10;99.90
27384;DHT22;14851;51.166;4.760;2023-08-20T03:11:31;18.20;99.90
27384;DHT22;14851;51.166;4.760;2023-08-20T03:13:58;18.10;99.90
27384;DHT22;14851;51.166;4.760;2023-08-20T03:16:24;18.00;99.90
27384;DHT22;14851;51.166;4.760;2023-08-20T03:18:50;18.00;99.90
27384;DHT22;14851;51.166;4.760;2023-08-20T03:21:16;17.90;99.90
27384;DHT22;14851;51.166;4.760;2023-08-20T03:23:45;17.90;99.90
27384;DHT22;14851;51.166;4.760;2023-08-20T03:26:12;17.80;99.90
27384;DHT22;14851;51.166;4.760;2023-08-20T03:28:41;17.80;99.90
27384;DHT22;14851;51.166;4.760;2023-08-20T03:31:07;17.80;99.90
27384;DHT22;14851;51.166;4.760;2023-08-20T03:33:39;17.70;99.90
27384;DHT22;14851;51.166;4.760;2023-08-20T03:36:05;17.70;99.90
27384;DHT22;14851;51.166;4.760;2023-08-20T03:38:31;17.70;99.90
27384;DHT22;14851;51.166;4.760;2023-08-20T03:40:57;17.60;99.90
27384;DHT22;14851;51.166;4.760;2023-08-20T03:43:25;17.60;99.90
27384;DHT22;14851;51.166;4.760;2023-08-20T03:45:52;17.60;99.90
27384;DHT22;14851;51.166;4.760;2023-08-20T03:48:20;17.60;99.90
27384;DHT22;14851;51.166;4.760;2023-08-20T03:50:49;17.50;99.90
27384;DHT22;14851;51.166;4.760;2023-08-20T03:53:16;17.50;99.90
27384;DHT22;14851;51.166;4.760;2023-08-20T03:55:47;17.40;99.90
27384;DHT22;14851;51.166;4.760;2023-08-20T03:58:15;17.40;99.90
27384;DHT22;14851;51.166;4.760;2023-08-20T04:00:41;17.40;99.90
27384;DHT22;14851;51.166;4.760;2023-08-20T04:03:06;17.40;99.90
27384;DHT22;14851;51.166;4.760;2023-08-20T04:05:37;17.40;99.90
27384;DHT22;14851;51.166;4.760;2023-08-20T04:08:04;17.40;99.90
27384;DHT22;14851;51.166;4.760;2023-08-20T04:10:33;17.50;99.90
27384;DHT22;14851;51.166;4.760;2023-08-20T04:13:01;17.40;99.90
27384;DHT22;14851;51.166;4.760;2023-08-20T04:15:27;17.50;99.90
27384;DHT22;14851;51.166;4.760;2023-08-20T04:17:55;17.50;99.90
27384;DHT22;14851;51.166;4.760;2023-08-20T04:20:23;17.50;99.90
27384;DHT22;14851;51.166;4.760;2023-08-20T04:22:55;17.50;99.90
27384;DHT22;14851;51.166;4.760;2023-08-20T04:25:23;17.50;99.90
27384;DHT22;14851;51.166;4.760;2023-08-20T04:27:49;17.50;99.90
27384;DHT22;14851;51.166;4.760;2023-08-20T04:30:18;17.50;99.90
27384;DHT22;14851;51.166;4.760;2023-08-20T04:32:45;17.40;99.90
27384;DHT22;14851;51.166;4.760;2023-08-20T04:35:11;17.50;99.90
27384;DHT22;14851;51.166;4.760;2023-08-20T04:37:40;17.40;99.90
27384;DHT22;14851;51.166;4.760;2023-08-20T04:40:06;17.40;99.90
27384;DHT22;14851;51.166;4.760;2023-08-20T04:42:33;17.40;99.90
27384;DHT22;14851;51.166;4.760;2023-08-20T04:45:00;17.40;99.90
27384;DHT22;14851;51.166;4.760;2023-08-20T04:47:29;17.40;99.90
27384;DHT22;14851;51.166;4.760;2023-08-20T04:49:55;17.30;99.90
27384;DHT22;14851;51.166;4.760;2023-08-20T04:52:23;17.30;99.90
27384;DHT22;14851;51.166;4.760;2023-08-20T04:54:51;17.30;99.90
27384;DHT22;14851;51.166;4.760;2023-08-20T04:57:20;17.30;99.90
27384;DHT22;14851;51.166;4.760;2023-08-20T04:59:46;17.30;99.90
27384;DHT22;14851;51.166;4.760;2023-08-20T05:02:22;17.30;99.90
27384;DHT22;14851;51.166;4.760;2023-08-20T05:04:56;17.20;99.90
27384;DHT22;14851;51.166;4.760;2023-08-20T05:07:22;17.20;99.90
27384;DHT22;14851;51.166;4.760;2023-08-20T05:09:49;17.20;99.90
27384;DHT22;14851;51.166;4.760;2023-08-20T05:12:15;17.20;99.90
27384;DHT22;14851;51.166;4.760;2023-08-20T05:14:41;17.20;99.90
27384;DHT22;14851;51.166;4.760;2023-08-20T05:17:09;17.20;99.90
27384;DHT22;14851;51.166;4.760;2023-08-20T05:19:36;17.20;99.90
27384;DHT22;14851;51.166;4.760;2023-08-20T05:22:04;17.10;99.90
27384;DHT22;14851;51.166;4.760;2023-08-20T05:24:36;17.10;99.90
27384;DHT22;14851;51.166;4.760;2023-08-20T05:27:13;17.20;99.90
27384;DHT22;14851;51.166;4.760;2023-08-20T05:29:49;17.20;99.90
27384;DHT22;14851;51.166;4.760;2023-08-20T05:32:16;17.10;99.90
27384;DHT22;14851;51.166;4.760;2023-08-20T05:34:43;17.10;99.90
27384;DHT22;14851;51.166;4.760;2023-08-20T05:37:09;17.20;99.90
27384;DHT22;14851;51.166;4.760;2023-08-20T05:39:43;17.20;99.90
27384;DHT22;14851;51.166;4.760;2023-08-20T05:42:10;17.20;99.90
27384;DHT22;14851;51.166;4.760;2023-08-20T05:44:38;17.20;99.90
27384;DHT22;14851;51.166;4.760;2023-08-20T05:47:06;17.30;99.90
27384;DHT22;14851;51.166;4.760;2023-08-20T05:49:32;17.20;99.90
27384;DHT22;14851;51.166;4.760;2023-08-20T05:51:58;17.20;99.90
27384;DHT22;14851;51.166;4.760;2023-08-20T05:54:25;17.20;99.90
27384;DHT22;14851;51.166;4.760;2023-08-20T05:56:55;17.20;99.90
27384;DHT22;14851;51.166;4.760;2023-08-20T05:59:20;17.20;99.90
27384;DHT22;14851;51.166;4.760;2023-08-20T06:01:48;17.30;99.90
27384;DHT22;14851;51.166;4.760;2023-08-20T06:04:14;17.30;99.90
27384;DHT22;14851;51.166;4.760;2023-08-20T06:06:44;17.30;99.90
27384;DHT22;14851;51.166;4.760;2023-08-20T06:09:12;17.30;99.90
27384;DHT22;14851;51.166;4.760;2023-08-20T06:11:38;17.30;99.90
27384;DHT22;14851;51.166;4.760;2023-08-20T06:14:04;17.30;99.90
27384;DHT22;14851;51.166;4.760;2023-08-20T06:16:30;17.30;99.90
27384;DHT22;14851;51.166;4.760;2023-08-20T06:18:58;17.40;99.90
27384;DHT22;14851;51.166;4.760;2023-08-20T06:21:23;17.40;99.90
27384;DHT22;14851;51.166;4.760;2023-08-20T06:23:49;17.40;99.90
27384;DHT22;14851;51.166;4.760;2023-08-20T06:26:18;17.40;99.90
27384;DHT22;14851;51.166;4.760;2023-08-20T06:28:44;17.50;99.90
27384;DHT22;14851;51.166;4.760;2023-08-20T06:31:10;17.50;99.90
27384;DHT22;14851;51.166;4.760;2023-08-20T06:33:36;17.50;99.90
27384;DHT22;14851;51.166;4.760;2023-08-20T06:36:02;17.60;99.90
27384;DHT22;14851;51.166;4.760;2023-08-20T06:38:28;17.60;99.90
27384;DHT22;14851;51.166;4.760;2023-08-20T06:40:53;17.70;99.90
27384;DHT22;14851;51.166;4.760;2023-08-20T06:43:20;17.70;99.90
27384;DHT22;14851;51.166;4.760;2023-08-20T06:45:46;17.80;99.90
27384;DHT22;14851;51.166;4.760;2023-08-20T06:48:12;17.80;99.90
27384;DHT22;14851;51.166;4.760;2023-08-20T06:50:38;17.90;99.90
27384;DHT22;14851;51.166;4.760;2023-08-20T06:53:04;17.90;99.90
27384;DHT22;14851;51.166;4.760;2023-08-20T06:55:32;17.90;99.90
27384;DHT22;14851;51.166;4.760;2023-08-20T06:57:58;18.00;99.90
27384;DHT22;14851;51.166;4.760;2023-08-20T07:00:24;18.00;99.90
27384;DHT22;14851;51.166;4.760;2023-08-20T07:02:49;18.00;99.90
27384;DHT22;14851;51.166;4.760;2023-08-20T07:05:15;18.10;99.90
27384;DHT22;14851;51.166;4.760;2023-08-20T07:07:45;18.10;99.90
27384;DHT22;14851;51.166;4.760;2023-08-20T07:10:11;18.10;99.90
27384;DHT22;14851;51.166;4.760;2023-08-20T07:12:39;18.10;99.90
27384;DHT22;14851;51.166;4.760;2023-08-20T07:15:07;18.20;99.90
27384;DHT22;14851;51.166;4.760;2023-08-20T07:17:33;18.20;99.90
27384;DHT22;14851;51.166;4.760;2023-08-20T07:20:02;18.20;99.90
27384;DHT22;14851;51.166;4.760;2023-08-20T07:22:28;18.30;99.90
27384;DHT22;14851;51.166;4.760;2023-08-20T07:24:55;18.30;99.90
27384;DHT22;14851;51.166;4.760;2023-08-20T07:27:23;18.30;99.90
27384;DHT22;14851;51.166;4.760;2023-08-20T07:29:49;18.30;99.90
27384;DHT22;14851;51.166;4.760;2023-08-20T07:32:15;18.30;99.90
27384;DHT22;14851;51.166;4.760;2023-08-20T07:34:41;18.30;99.90
27384;DHT22;14851;51.166;4.760;2023-08-20T07:37:08;18.40;99.90
27384;DHT22;14851;51.166;4.760;2023-08-20T07:39:34;18.40;99.90
27384;DHT22;14851;51.166;4.760;2023-08-20T07:41:59;18.40;99.90
27384;DHT22;14851;51.166;4.760;2023-08-20T07:44:28;18.50;99.90
27384;DHT22;14851;51.166;4.760;2023-08-20T07:46:54;18.50;99.90
27384;DHT22;14851;51.166;4.760;2023-08-20T07:49:20;18.50;99.90
27384;DHT22;14851;51.166;4.760;2023-08-20T07:51:46;18.60;99.90
27384;DHT22;14851;51.166;4.760;2023-08-20T07:54:12;18.60;99.90
27384;DHT22;14851;51.166;4.760;2023-08-20T07:56:37;18.60;99.90
27384;DHT22;14851;51.166;4.760;2023-08-20T07:59:03;18.60;99.90
27384;DHT22;14851;51.166;4.760;2023-08-20T08:01:29;18.70;99.90
27384;DHT22;14851;51.166;4.760;2023-08-20T08:03:58;18.70;99.90
27384;DHT22;14851;51.166;4.760;2023-08-20T08:06:25;18.80;99.90
27384;DHT22;14851;51.166;4.760;2023-08-20T08:08:52;18.80;99.90
27384;DHT22;14851;51.166;4.760;2023-08-20T08:11:19;18.90;99.90
27384;DHT22;14851;51.166;4.760;2023-08-20T08:13:45;18.90;99.90
27384;DHT22;14851;51.166;4.760;2023-08-20T08:16:13;18.90;99.90
27384;DHT22;14851;51.166;4.760;2023-08-20T08:18:42;19.00;99.90
27384;DHT22;14851;51.166;4.760;2023-08-20T08:21:10;19.00;99.90
27384;DHT22;14851;51.166;4.760;2023-08-20T08:23:36;19.10;99.90
27384;DHT22;14851;51.166;4.760;2023-08-20T08:26:02;19.10;99.90
27384;DHT22;14851;51.166;4.760;2023-08-20T08:28:28;19.10;99.90
27384;DHT22;14851;51.166;4.760;2023-08-20T08:30:54;19.20;99.90
27384;DHT22;14851;51.166;4.760;2023-08-20T08:33:20;19.20;99.90
27384;DHT22;14851;51.166;4.760;2023-08-20T08:35:46;19.20;99.90
27384;DHT22;14851;51.166;4.760;2023-08-20T08:38:12;19.30;99.90
27384;DHT22;14851;51.166;4.760;2023-08-20T08:40:40;19.30;99.90
27384;DHT22;14851;51.166;4.760;2023-08-20T08:43:06;19.30;99.90
27384;DHT22;14851;51.166;4.760;2023-08-20T08:45:32;19.30;99.90
27384;DHT22;14851;51.166;4.760;2023-08-20T08:47:59;19.40;99.90
27384;DHT22;14851;51.166;4.760;2023-08-20T08:50:28;19.40;99.90
27384;DHT22;14851;51.166;4.760;2023-08-20T08:52:55;19.40;99.90
27384;DHT22;14851;51.166;4.760;2023-08-20T08:55:21;19.50;99.90
27384;DHT22;14851;51.166;4.760;2023-08-20T08:57:47;19.50;99.90
27384;DHT22;14851;51.166;4.760;2023-08-20T09:00:13;19.50;99.90
27384;DHT22;14851;51.166;4.760;2023-08-20T09:02:39;19.60;99.90
27384;DHT22;14851;51.166;4.760;2023-08-20T09:05:10;19.60;99.90
27384;DHT22;14851;51.166;4.760;2023-08-20T09:07:42;19.60;99.90
27384;DHT22;14851;51.166;4.760;2023-08-20T09:10:09;19.70;99.90
27384;DHT22;14851;51.166;4.760;2023-08-20T09:12:35;19.70;99.90
27384;DHT22;14851;51.166;4.760;2023-08-20T09:15:02;19.70;99.90
27384;DHT22;14851;51.166;4.760;2023-08-20T09:17:29;19.70;99.90
27384;DHT22;14851;51.166;4.760;2023-08-20T09:19:59;19.80;99.90
27384;DHT22;14851;51.166;4.760;2023-08-20T09:22:26;19.90;99.90
27384;DHT22;14851;51.166;4.760;2023-08-20T09:24:55;19.90;99.90
27384;DHT22;14851;51.166;4.760;2023-08-20T09:27:23;19.90;99.90
27384;DHT22;14851;51.166;4.760;2023-08-20T09:29:56;20.00;99.90
27384;DHT22;14851;51.166;4.760;2023-08-20T09:32:25;20.00;99.90
27384;DHT22;14851;51.166;4.760;2023-08-20T09:34:54;20.10;99.90
27384;DHT22;14851;51.166;4.760;2023-08-20T09:37:23;20.10;99.90
27384;DHT22;14851;51.166;4.760;2023-08-20T09:39:51;20.10;99.90
27384;DHT22;14851;51.166;4.760;2023-08-20T09:42:18;20.10;99.90
27384;DHT22;14851;51.166;4.760;2023-08-20T09:44:46;20.20;99.90
27384;DHT22;14851;51.166;4.760;2023-08-20T09:47:15;20.20;99.90
27384;DHT22;14851;51.166;4.760;2023-08-20T09:49:43;20.20;99.90
27384;DHT22;14851;51.166;4.760;2023-08-20T09:52:11;20.30;99.90
27384;DHT22;14851;51.166;4.760;2023-08-20T09:59:55;20.30;99.90
27384;DHT22;14851;51.166;4.760;2023-08-20T10:02:22;20.40;99.90
27384;DHT22;14851;51.166;4.760;2023-08-20T10:04:50;20.40;99.90
27384;DHT22;14851;51.166;4.760;2023-08-20T10:07:17;20.50;99.90
27384;DHT22;14851;51.166;4.760;2023-08-20T10:09:44;20.50;99.90
27384;DHT22;14851;51.166;4.760;2023-08-20T10:12:13;20.60;99.90
27384;DHT22;14851;51.166;4.760;2023-08-20T10:14:40;20.60;99.90
27384;DHT22;14851;51.166;4.760;2023-08-20T10:17:12;20.70;99.90
27384;DHT22;14851;51.166;4.760;2023-08-20T10:19:38;20.70;99.90
27384;DHT22;14851;51.166;4.760;2023-08-20T10:22:05;20.70;99.90
27384;DHT22;14851;51.166;4.760;2023-08-20T10:27:12;20.80;99.90
27384;DHT22;14851;51.166;4.760;2023-08-20T10:29:40;20.80;99.90
27384;DHT22;14851;51.166;4.760;2023-08-20T10:32:11;20.90;99.90
27384;DHT22;14851;51.166;4.760;2023-08-20T10:34:42;20.80;99.90
27384;DHT22;14851;51.166;4.760;2023-08-20T10:37:14;20.90;99.90
27384;DHT22;14851;51.166;4.760;2023-08-20T10:39:41;21.00;99.90
27384;DHT22;14851;51.166;4.760;2023-08-20T10:42:23;21.10;99.90
27384;DHT22;14851;51.166;4.760;2023-08-20T10:45:21;21.10;99.90
27384;DHT22;14851;51.166;4.760;2023-08-20T10:47:48;21.20;99.90
27384;DHT22;14851;51.166;4.760;2023-08-20T10:50:18;21.20;99.90
27384;DHT22;14851;51.166;4.760;2023-08-20T10:52:49;21.20;99.90
27384;DHT22;14851;51.166;4.760;2023-08-20T10:55:22;21.20;99.90
27384;DHT22;14851;51.166;4.760;2023-08-20T10:57:59;21.30;99.90
27384;DHT22;14851;51.166;4.760;2023-08-20T11:00:28;21.30;99.90
27384;DHT22;14851;51.166;4.760;2023-08-20T11:02:58;21.30;99.90
27384;DHT22;14851;51.166;4.760;2023-08-20T11:05:25;21.50;99.90
27384;DHT22;14851;51.166;4.760;2023-08-20T11:07:51;21.50;99.90
27384;DHT22;14851;51.166;4.760;2023-08-20T11:10:19;21.50;99.90
27384;DHT22;14851;51.166;4.760;2023-08-20T11:12:47;21.50;99.90
27384;DHT22;14851;51.166;4.760;2023-08-20T11:15:14;21.50;99.90
27384;DHT22;14851;51.166;4.760;2023-08-20T11:17:41;21.60;99.90
27384;DHT22;14851;51.166;4.760;2023-08-20T11:20:09;21.60;99.90
27384;DHT22;14851;51.166;4.760;2023-08-20T11:22:37;21.60;99.90
27384;DHT22;14851;51.166;4.760;2023-08-20T11:25:04;21.70;99.90
27384;DHT22;14851;51.166;4.760;2023-08-20T11:27:31;21.70;99.90
27384;DHT22;14851;51.166;4.760;2023-08-20T11:29:58;21.70;99.90
27384;DHT22;14851;51.166;4.760;2023-08-20T11:32:24;21.70;99.90
27384;DHT22;14851;51.166;4.760;2023-08-20T11:34:50;21.80;99.90
27384;DHT22;14851;51.166;4.760;2023-08-20T11:37:27;21.80;99.90
27384;DHT22;14851;51.166;4.760;2023-08-20T11:39:53;21.80;99.90
27384;DHT22;14851;51.166;4.760;2023-08-20T11:42:19;21.90;99.90
27384;DHT22;14851;51.166;4.760;2023-08-20T11:44:50;21.90;99.90
27384;DHT22;14851;51.166;4.760;2023-08-20T11:47:17;22.00;99.90
27384;DHT22;14851;51.166;4.760;2023-08-20T11:49:44;22.00;99.90
27384;DHT22;14851;51.166;4.760;2023-08-20T11:52:10;22.10;99.90
27384;DHT22;14851;51.166;4.760;2023-08-20T11:54:39;22.20;99.90
27384;DHT22;14851;51.166;4.760;2023-08-20T11:57:06;22.30;99.90
27384;DHT22;14851;51.166;4.760;2023-08-20T11:59:32;22.30;99.90
27384;DHT22;14851;51.166;4.760;2023-08-20T12:02:00;22.30;99.90
27384;DHT22;14851;51.166;4.760;2023-08-20T12:04:28;22.50;99.90
27384;DHT22;14851;51.166;4.760;2023-08-20T12:07:14;22.50;99.90
27384;DHT22;14851;51.166;4.760;2023-08-20T12:09:40;22.50;99.90
27384;DHT22;14851;51.166;4.760;2023-08-20T12:12:10;22.50;99.90
27384;DHT22;14851;51.166;4.760;2023-08-20T12:14:36;22.50;99.90
27384;DHT22;14851;51.166;4.760;2023-08-20T12:17:02;22.50;99.90
27384;DHT22;14851;51.166;4.760;2023-08-20T12:19:33;22.60;99.90
27384;DHT22;14851;51.166;4.760;2023-08-20T12:21:59;22.60;99.90
27384;DHT22;14851;51.166;4.760;2023-08-20T12:24:29;22.60;99.90
27384;DHT22;14851;51.166;4.760;2023-08-20T12:26:57;22.60;99.90
27384;DHT22;14851;51.166;4.760;2023-08-20T12:29:23;22.70;99.90
27384;DHT22;14851;51.166;4.760;2023-08-20T12:31:49;22.70;99.90
27384;DHT22;14851;51.166;4.760;2023-08-20T12:34:15;22.70;99.90
27384;DHT22;14851;51.166;4.760;2023-08-20T12:36:41;22.80;99.90
27384;DHT22;14851;51.166;4.760;2023-08-20T12:39:07;22.90;99.90
27384;DHT22;14851;51.166;4.760;2023-08-20T12:41:33;22.90;99.90
27384;DHT22;14851;51.166;4.760;2023-08-20T12:44:04;22.90;99.90
27384;DHT22;14851;51.166;4.760;2023-08-20T12:46:30;23.00;99.90
27384;DHT22;14851;51.166;4.760;2023-08-20T12:48:55;23.00;99.90
27384;DHT22;14851;51.166;4.760;2023-08-20T12:51:21;23.00;99.90
27384;DHT22;14851;51.166;4.760;2023-08-20T12:53:48;23.00;99.90
27384;DHT22;14851;51.166;4.760;2023-08-20T12:56:14;23.00;99.90
27384;DHT22;14851;51.166;4.760;2023-08-20T12:58:41;23.00;99.90
27384;DHT22;14851;51.166;4.760;2023-08-20T13:01:07;23.10;99.90
27384;DHT22;14851;51.166;4.760;2023-08-20T13:03:34;23.10;99.90
27384;DHT22;14851;51.166;4.760;2023-08-20T13:06:00;23.10;99.90
27384;DHT22;14851;51.166;4.760;2023-08-20T13:08:26;23.20;99.90
27384;DHT22;14851;51.166;4.760;2023-08-20T13:10:54;23.20;99.90
27384;DHT22;14851;51.166;4.760;2023-08-20T13:13:21;23.20;99.90
27384;DHT22;14851;51.166;4.760;2023-08-20T13:15:52;23.20;99.90
27384;DHT22;14851;51.166;4.760;2023-08-20T13:18:18;23.30;99.90
27384;DHT22;14851;51.166;4.760;2023-08-20T13:20:44;23.30;99.90
27384;DHT22;14851;51.166;4.760;2023-08-20T13:23:10;23.40;99.90
27384;DHT22;14851;51.166;4.760;2023-08-20T13:25:36;23.40;99.90
27384;DHT22;14851;51.166;4.760;2023-08-20T13:28:02;23.40;99.90
27384;DHT22;14851;51.166;4.760;2023-08-20T13:30:30;23.50;99.90
27384;DHT22;14851;51.166;4.760;2023-08-20T13:32:59;23.50;99.90
27384;DHT22;14851;51.166;4.760;2023-08-20T13:35:24;23.60;99.90
27384;DHT22;14851;51.166;4.760;2023-08-20T13:37:51;23.60;99.90
27384;DHT22;14851;51.166;4.760;2023-08-20T13:40:22;23.60;99.90
27384;DHT22;14851;51.166;4.760;2023-08-20T13:42:51;23.60;99.90
27384;DHT22;14851;51.166;4.760;2023-08-20T13:45:17;23.80;99.90
27384;DHT22;14851;51.166;4.760;2023-08-20T13:47:43;23.80;99.90
27384;DHT22;14851;51.166;4.760;2023-08-20T13:50:10;23.90;99.90
27384;DHT22;14851;51.166;4.760;2023-08-20T13:52:37;24.00;99.90
27384;DHT22;14851;51.166;4.760;2023-08-20T13:55:03;24.00;99.90
27384;DHT22;14851;51.166;4.760;2023-08-20T13:57:29;24.00;99.90
27384;DHT22;14851;51.166;4.760;2023-08-20T13:59:55;24.10;99.90
27384;DHT22;14851;51.166;4.760;2023-08-20T14:02:20;24.20;99.90
27384;DHT22;14851;51.166;4.760;2023-08-20T14:04:47;24.10;99.90
27384;DHT22;14851;51.166;4.760;2023-08-20T14:07:13;24.10;99.90
27384;DHT22;14851;51.166;4.760;2023-08-20T14:09:39;24.20;99.90
27384;DHT22;14851;51.166;4.760;2023-08-20T14:12:06;24.20;99.90
27384;DHT22;14851;51.166;4.760;2023-08-20T14:14:32;24.20;99.90
27384;DHT22;14851;51.166;4.760;2023-08-20T14:16:58;24.20;99.90
27384;DHT22;14851;51.166;4.760;2023-08-20T14:19:26;24.30;99.90
27384;DHT22;14851;51.166;4.760;2023-08-20T14:21:54;24.30;99.90
27384;DHT22;14851;51.166;4.760;2023-08-20T14:24:20;24.40;99.90
27384;DHT22;14851;51.166;4.760;2023-08-20T14:26:48;24.50;99.90
27384;DHT22;14851;51.166;4.760;2023-08-20T14:29:14;24.50;99.90
27384;DHT22;14851;51.166;4.760;2023-08-20T14:31:40;24.60;99.90
27384;DHT22;14851;51.166;4.760;2023-08-20T14:34:06;24.70;99.90
27384;DHT22;14851;51.166;4.760;2023-08-20T14:36:34;24.80;99.90
27384;DHT22;14851;51.166;4.760;2023-08-20T14:39:02;24.80;99.90
27384;DHT22;14851;51.166;4.760;2023-08-20T14:41:30;25.00;99.90
27384;DHT22;14851;51.166;4.760;2023-08-20T14:43:55;25.00;99.90
27384;DHT22;14851;51.166;4.760;2023-08-20T14:46:21;25.10;99.90
27384;DHT22;14851;51.166;4.760;2023-08-20T14:48:47;25.10;99.90
27384;DHT22;14851;51.166;4.760;2023-08-20T14:51:13;25.10;99.90
27384;DHT22;14851;51.166;4.760;2023-08-20T14:53:39;25.10;99.90
27384;DHT22;14851;51.166;4.760;2023-08-20T14:56:07;25.20;99.90
27384;DHT22;14851;51.166;4.760;2023-08-20T14:58:33;25.20;99.90
27384;DHT22;14851;51.166;4.760;2023-08-20T15:00:59;25.20;99.90
27384;DHT22;14851;51.166;4.760;2023-08-20T15:03:25;25.20;99.90
27384;DHT22;14851;51.166;4.760;2023-08-20T15:05:59;25.20;99.90
27384;DHT22;14851;51.166;4.760;2023-08-20T15:08:25;25.20;99.90
27384;DHT22;14851;51.166;4.760;2023-08-20T15:11:02;25.20;99.90
27384;DHT22;14851;51.166;4.760;2023-08-20T15:13:31;25.20;99.90
27384;DHT22;14851;51.166;4.760;2023-08-20T15:16:00;25.30;99.90
27384;DHT22;14851;51.166;4.760;2023-08-20T15:18:26;25.30;99.90
27384;DHT22;14851;51.166;4.760;2023-08-20T15:20:58;25.30;99.90
27384;DHT22;14851;51.166;4.760;2023-08-20T15:23:25;25.40;99.90
27384;DHT22;14851;51.166;4.760;2023-08-20T15:25:55;25.40;99.90
27384;DHT22;14851;51.166;4.760;2023-08-20T15:28:25;25.40;99.90
27384;DHT22;14851;51.166;4.760;2023-08-20T15:30:56;25.40;99.90
27384;DHT22;14851;51.166;4.760;2023-08-20T15:33:23;25.40;99.90
27384;DHT22;14851;51.166;4.760;2023-08-20T15:35:49;25.40;99.90
27384;DHT22;14851;51.166;4.760;2023-08-20T15:38:15;25.50;99.90
27384;DHT22;14851;51.166;4.760;2023-08-20T15:40:41;25.50;99.90
27384;DHT22;14851;51.166;4.760;2023-08-20T15:43:07;25.60;99.90
27384;DHT22;14851;51.166;4.760;2023-08-20T15:45:33;25.60;99.90
27384;DHT22;14851;51.166;4.760;2023-08-20T15:47:59;25.60;99.90